Time;durP1;ratioP1;P1;durP2;ratioP2;P2;SDS_P1;SDS_P2;PMS_P1;PMS_P2;Temp;Humidity;BMP_temperature;BMP_pressure;BME280_temperature;BME280_humidity;BME280_pressure;Samples;Min_cycle;Max_cycle;Signal;HPM_P1;HPM_P2
2023/05/02 00:00:20;;;;;;;;;;;9.90;99.90;;;;;;5072564;28;19931;-71
2023/05/02 00:02:45;;;;;;;;;;;9.80;99.90;;;;;;5073473;28;19924;-70
2023/05/02 00:05:11;;;;;;;;;;;9.90;99.90;;;;;;5062688;28;20335;-70
2023/05/02 00:07:36;;;;;;;;;;;9.80;99.90;;;;;;5053770;28;19972;-70
2023/05/02 00:10:02;;;;;;;;;;;9.80;99.90;;;;;;5073172;28;19924;-70
2023/05/02 00:12:27;;;;;;;;;;;9.80;99.90;;;;;;5072944;28;20405;-70
2023/05/02 00:14:53;;;;;;;;;;;9.80;99.90;;;;;;5070953;28;19924;-71
2023/05/02 00:17:19;;;;;;;;;;;9.80;99.90;;;;;;5072846;28;19925;-70
2023/05/02 00:19:45;;;;;;;;;;;9.80;99.90;;;;;;5072655;28;19924;-70
2023/05/02 00:22:10;;;;;;;;;;;9.80;99.90;;;;;;5055178;28;19929;-71
2023/05/02 00:24:36;;;;;;;;;;;9.70;99.90;;;;;;5052778;28;20259;-71
2023/05/02 00:27:02;;;;;;;;;;;9.70;99.90;;;;;;5070416;28;19928;-71
2023/05/02 00:29:27;;;;;;;;;;;9.70;99.90;;;;;;5070499;28;19932;-69
2023/05/02 00:31:53;;;;;;;;;;;9.70;99.90;;;;;;5072993;28;19931;-70
2023/05/02 00:34:18;;;;;;;;;;;9.70;99.90;;;;;;5072600;28;20018;-71
2023/05/02 00:36:44;;;;;;;;;;;9.70;99.90;;;;;;5053771;28;20058;-71
2023/05/02 00:39:10;;;;;;;;;;;9.80;99.90;;;;;;5061712;28;20011;-71
2023/05/02 00:41:35;;;;;;;;;;;9.70;99.90;;;;;;5073002;28;20425;-70
2023/05/02 00:44:01;;;;;;;;;;;9.80;99.90;;;;;;5070051;28;19982;-71
2023/05/02 00:46:27;;;;;;;;;;;9.70;99.90;;;;;;5073222;28;20023;-71
2023/05/02 00:48:52;;;;;;;;;;;9.80;99.90;;;;;;5072645;28;19925;-71
2023/05/02 00:51:18;;;;;;;;;;;9.70;99.90;;;;;;5072625;28;19925;-71
2023/05/02 00:53:44;;;;;;;;;;;9.70;99.90;;;;;;5073093;28;20389;-71
2023/05/02 00:56:10;;;;;;;;;;;9.70;99.90;;;;;;5072069;28;19924;-71
2023/05/02 00:58:37;;;;;;;;;;;9.70;99.90;;;;;;5069617;28;19925;-70
2023/05/02 01:01:11;;;;;;;;;;;9.70;99.90;;;;;;5072206;28;19978;-70
2023/05/02 01:03:56;;;;;;;;;;;9.70;99.90;;;;;;5072691;28;19925;-71
2023/05/02 01:06:39;;;;;;;;;;;9.70;99.90;;;;;;5065932;28;20011;-70
2023/05/02 01:09:10;;;;;;;;;;;9.70;99.90;;;;;;5051710;28;19924;-71
2023/05/02 01:11:38;;;;;;;;;;;9.80;99.90;;;;;;5054687;28;20382;-70
2023/05/02 01:14:04;;;;;;;;;;;9.70;99.90;;;;;;5072154;28;19925;-70
2023/05/02 01:16:31;;;;;;;;;;;9.80;99.90;;;;;;5072268;28;19928;-70
2023/05/02 01:18:58;;;;;;;;;;;9.70;99.90;;;;;;5070896;28;19974;-70
2023/05/02 01:21:24;;;;;;;;;;;9.80;99.90;;;;;;5071790;28;19926;-70
2023/05/02 01:24:05;;;;;;;;;;;9.70;99.90;;;;;;5072194;28;19928;-70
2023/05/02 01:26:37;;;;;;;;;;;9.60;99.90;;;;;;5069287;28;20393;-70
2023/05/02 01:29:04;;;;;;;;;;;9.50;99.90;;;;;;5067114;28;19924;-69
2023/05/02 01:31:43;;;;;;;;;;;9.50;99.90;;;;;;5072058;28;19930;-70
2023/05/02 01:34:09;;;;;;;;;;;9.50;99.90;;;;;;5072076;28;20393;-70
2023/05/02 01:36:35;;;;;;;;;;;9.40;99.90;;;;;;5050184;28;20224;-70
2023/05/02 01:39:01;;;;;;;;;;;9.30;99.90;;;;;;5071329;28;19935;-70
2023/05/02 01:41:29;;;;;;;;;;;9.10;99.90;;;;;;5060926;28;19925;-69
2023/05/02 01:43:56;;;;;;;;;;;8.90;99.90;;;;;;5055800;28;19982;-70
2023/05/02 01:46:22;;;;;;;;;;;8.80;99.90;;;;;;5061739;28;19924;-70
2023/05/02 01:48:50;;;;;;;;;;;8.70;99.90;;;;;;5059458;28;19947;-70
2023/05/02 01:51:17;;;;;;;;;;;8.60;99.90;;;;;;5073980;28;19924;-71
2023/05/02 01:53:43;;;;;;;;;;;8.60;99.90;;;;;;5074681;28;19935;-71
2023/05/02 01:56:09;;;;;;;;;;;8.50;99.90;;;;;;5075670;28;19924;-71
2023/05/02 01:58:34;;;;;;;;;;;8.50;99.90;;;;;;5071979;28;20439;-70
2023/05/02 02:01:00;;;;;;;;;;;8.50;99.90;;;;;;5075268;28;20028;-70
2023/05/02 02:03:28;;;;;;;;;;;8.50;99.90;;;;;;5067542;28;19931;-70
2023/05/02 02:05:54;;;;;;;;;;;8.50;99.90;;;;;;5062007;28;20026;-70
2023/05/02 02:08:19;;;;;;;;;;;8.50;99.90;;;;;;5060913;28;20011;-70
2023/05/02 02:10:49;;;;;;;;;;;8.50;99.90;;;;;;5074694;28;19925;-70
2023/05/02 02:13:16;;;;;;;;;;;8.50;99.90;;;;;;5074523;28;19924;-69
2023/05/02 02:15:43;;;;;;;;;;;8.50;99.90;;;;;;5075343;28;19935;-70
2023/05/02 02:18:12;;;;;;;;;;;8.50;99.90;;;;;;5062291;28;20296;-69
2023/05/02 02:20:39;;;;;;;;;;;8.50;99.90;;;;;;5049142;28;19978;-69
2023/05/02 02:23:06;;;;;;;;;;;8.50;99.90;;;;;;5070846;28;19924;-69
2023/05/02 02:25:32;;;;;;;;;;;8.50;99.90;;;;;;5074356;28;19947;-69
2023/05/02 02:27:58;;;;;;;;;;;8.40;99.90;;;;;;5074637;28;20400;-69
2023/05/02 02:30:23;;;;;;;;;;;8.40;99.90;;;;;;5074842;28;20007;-70
2023/05/02 02:32:49;;;;;;;;;;;8.30;99.90;;;;;;5072072;28;20263;-69
2023/05/02 02:35:15;;;;;;;;;;;8.40;99.90;;;;;;5073868;28;19924;-69
2023/05/02 02:37:45;;;;;;;;;;;8.30;99.90;;;;;;5073687;28;19928;-69
2023/05/02 02:40:16;;;;;;;;;;;8.20;99.90;;;;;;5072557;28;19925;-70
2023/05/02 02:42:44;;;;;;;;;;;8.20;99.90;;;;;;5037188;28;20115;-70
2023/05/02 02:45:15;;;;;;;;;;;8.10;99.90;;;;;;5055405;28;19936;-69
2023/05/02 02:47:45;;;;;;;;;;;8.10;99.90;;;;;;5068220;28;19931;-69
2023/05/02 02:50:29;;;;;;;;;;;8.20;99.90;;;;;;5074436;28;20037;-70
2023/05/02 02:52:59;;;;;;;;;;;8.10;99.90;;;;;;5054664;28;19978;-70
2023/05/02 02:55:48;;;;;;;;;;;8.00;99.90;;;;;;5056014;28;20297;-70
2023/05/02 02:58:29;;;;;;;;;;;8.00;99.90;;;;;;5046527;28;19976;-70
2023/05/02 03:00:55;;;;;;;;;;;8.00;99.90;;;;;;5065416;28;19924;-70
2023/05/02 03:03:22;;;;;;;;;;;8.00;99.90;;;;;;5072275;28;19932;-70
2023/05/02 03:05:47;;;;;;;;;;;8.10;99.90;;;;;;5036456;28;19931;-70
2023/05/02 03:08:13;;;;;;;;;;;7.90;99.90;;;;;;5059664;28;20004;-69
2023/05/02 03:10:39;;;;;;;;;;;7.90;99.90;;;;;;5054213;28;19925;-70
2023/05/02 03:13:04;;;;;;;;;;;7.80;99.90;;;;;;5052923;28;19978;-70
2023/05/02 03:15:48;;;;;;;;;;;7.70;99.90;;;;;;5068358;28;19952;-70
2023/05/02 03:18:13;;;;;;;;;;;7.70;99.90;;;;;;5073281;28;19925;-70
2023/05/02 03:20:39;;;;;;;;;;;7.70;99.90;;;;;;5074159;28;20271;-70
2023/05/02 03:23:05;;;;;;;;;;;7.60;99.90;;;;;;5071734;28;19932;-70
2023/05/02 03:25:30;;;;;;;;;;;7.60;99.90;;;;;;5073384;28;19924;-70
2023/05/02 03:27:56;;;;;;;;;;;7.60;99.90;;;;;;5073219;28;19924;-70
2023/05/02 03:30:22;;;;;;;;;;;7.60;99.90;;;;;;5055942;28;19978;-70
2023/05/02 03:32:48;;;;;;;;;;;7.60;99.90;;;;;;5038750;28;19925;-70
2023/05/02 03:35:13;;;;;;;;;;;7.60;99.90;;;;;;5054677;28;20281;-70
2023/05/02 03:37:39;;;;;;;;;;;7.60;99.90;;;;;;5072784;28;19955;-70
2023/05/02 03:40:05;;;;;;;;;;;7.60;99.90;;;;;;5073487;28;19924;-70
2023/05/02 03:42:30;;;;;;;;;;;7.60;99.90;;;;;;5073584;28;19971;-69
2023/05/02 03:44:56;;;;;;;;;;;7.60;99.90;;;;;;5072146;28;19947;-70
2023/05/02 03:47:22;;;;;;;;;;;7.50;99.90;;;;;;5073592;28;19943;-69
2023/05/02 03:49:47;;;;;;;;;;;7.50;99.90;;;;;;5072988;28;19928;-70
2023/05/02 03:52:13;;;;;;;;;;;7.50;99.90;;;;;;5060444;28;19929;-69
2023/05/02 03:54:38;;;;;;;;;;;7.60;99.90;;;;;;5073705;28;20361;-69
2023/05/02 03:57:04;;;;;;;;;;;7.50;99.90;;;;;;5057242;28;19929;-69
2023/05/02 03:59:34;;;;;;;;;;;7.50;99.90;;;;;;5053434;28;20429;-69
2023/05/02 04:01:59;;;;;;;;;;;7.40;99.90;;;;;;5068725;28;19924;-68
2023/05/02 04:04:25;;;;;;;;;;;7.40;99.90;;;;;;5071510;28;20007;-68
2023/05/02 04:06:50;;;;;;;;;;;7.40;99.90;;;;;;5072355;28;20294;-69
2023/05/02 04:09:16;;;;;;;;;;;7.40;99.90;;;;;;5068298;28;19929;-69
2023/05/02 04:11:41;;;;;;;;;;;7.40;99.90;;;;;;5053268;28;19925;-69
2023/05/02 04:14:07;;;;;;;;;;;7.40;99.90;;;;;;5052978;28;19932;-69
2023/05/02 04:16:32;;;;;;;;;;;7.30;99.90;;;;;;5052797;28;19924;-69
2023/05/02 04:18:58;;;;;;;;;;;7.40;99.90;;;;;;5062110;28;19932;-70
2023/05/02 04:21:23;;;;;;;;;;;7.40;99.90;;;;;;5073789;28;20293;-69
2023/05/02 04:23:49;;;;;;;;;;;7.40;99.90;;;;;;5065045;28;19925;-70
2023/05/02 04:26:15;;;;;;;;;;;7.40;99.90;;;;;;5038578;28;19924;-69
2023/05/02 04:28:41;;;;;;;;;;;7.30;99.90;;;;;;5073314;28;19967;-70
2023/05/02 04:31:06;;;;;;;;;;;7.30;99.90;;;;;;5073582;28;19976;-69
2023/05/02 04:33:32;;;;;;;;;;;7.30;99.90;;;;;;5066430;28;19925;-69
2023/05/02 04:35:57;;;;;;;;;;;7.30;99.90;;;;;;5067321;28;19924;-70
2023/05/02 04:38:23;;;;;;;;;;;7.30;99.90;;;;;;5064567;28;19925;-70
2023/05/02 04:40:51;;;;;;;;;;;7.20;99.90;;;;;;5073614;28;19943;-71
2023/05/02 04:43:17;;;;;;;;;;;7.30;99.90;;;;;;5055802;28;19924;-69
2023/05/02 04:45:42;;;;;;;;;;;7.20;99.90;;;;;;5059863;28;20377;-70
2023/05/02 04:48:08;;;;;;;;;;;7.50;99.90;;;;;;5072302;28;20297;-69
2023/05/02 04:50:33;;;;;;;;;;;7.30;99.90;;;;;;5052260;28;19925;-70
2023/05/02 04:52:59;;;;;;;;;;;7.30;99.90;;;;;;5056773;28;19931;-70
2023/05/02 04:55:25;;;;;;;;;;;7.30;99.90;;;;;;5073504;28;19931;-70
2023/05/02 04:57:50;;;;;;;;;;;7.30;99.90;;;;;;5073942;28;19929;-70
2023/05/02 05:00:16;;;;;;;;;;;7.30;99.90;;;;;;5071592;28;20294;-70
2023/05/02 05:02:42;;;;;;;;;;;7.30;99.90;;;;;;5071974;28;19980;-69
2023/05/02 05:05:08;;;;;;;;;;;7.20;99.90;;;;;;5054946;28;19928;-69
2023/05/02 05:07:33;;;;;;;;;;;7.20;99.90;;;;;;5072758;28;19932;-70
2023/05/02 05:09:59;;;;;;;;;;;7.30;99.90;;;;;;5069721;28;19982;-70
2023/05/02 05:12:24;;;;;;;;;;;7.30;99.90;;;;;;5072666;28;19931;-71
2023/05/02 05:14:50;;;;;;;;;;;7.30;99.90;;;;;;5072248;28;19929;-70
2023/05/02 05:17:16;;;;;;;;;;;7.30;99.90;;;;;;5055348;28;20347;-70
2023/05/02 05:19:41;;;;;;;;;;;7.30;99.90;;;;;;5039344;28;19925;-70
2023/05/02 05:22:07;;;;;;;;;;;7.30;99.90;;;;;;5063705;28;20306;-70
2023/05/02 05:24:33;;;;;;;;;;;7.30;99.90;;;;;;5064429;28;19925;-70
2023/05/02 05:26:58;;;;;;;;;;;7.40;99.90;;;;;;5060246;28;19983;-70
2023/05/02 05:29:24;;;;;;;;;;;7.40;99.90;;;;;;5062598;28;19955;-70
2023/05/02 05:31:49;;;;;;;;;;;7.40;99.90;;;;;;5080633;28;19952;-69
2023/05/02 05:34:15;;;;;;;;;;;7.40;99.90;;;;;;5070130;28;20019;-71
2023/05/02 05:36:41;;;;;;;;;;;7.50;99.90;;;;;;5083533;28;19924;-69
2023/05/02 05:39:06;;;;;;;;;;;8.20;99.90;;;;;;5084904;28;19947;-70
2023/05/02 05:41:33;;;;;;;;;;;7.30;99.90;;;;;;5067743;28;19936;-69
2023/05/02 05:43:59;;;;;;;;;;;7.30;99.90;;;;;;5063870;28;19988;-69
2023/05/02 05:46:24;;;;;;;;;;;7.30;99.90;;;;;;5066240;28;19978;-70
2023/05/02 05:48:50;;;;;;;;;;;7.30;99.90;;;;;;5066069;28;20351;-70
2023/05/02 05:51:15;;;;;;;;;;;7.40;99.90;;;;;;5076694;28;20351;-69
2023/05/02 05:53:41;;;;;;;;;;;7.30;99.90;;;;;;5077296;28;19968;-70
2023/05/02 05:56:07;;;;;;;;;;;7.30;99.90;;;;;;5085187;28;19982;-70
2023/05/02 05:58:33;;;;;;;;;;;7.40;99.90;;;;;;5079967;28;20422;-70
2023/05/02 06:00:58;;;;;;;;;;;7.30;99.90;;;;;;5077617;28;19928;-70
2023/05/02 06:03:24;;;;;;;;;;;7.40;99.90;;;;;;5075607;28;20088;-70
2023/05/02 06:05:49;;;;;;;;;;;7.40;99.90;;;;;;5076423;28;20007;-70
2023/05/02 06:08:15;;;;;;;;;;;7.50;99.90;;;;;;5060158;28;20031;-70
2023/05/02 06:10:40;;;;;;;;;;;7.60;99.90;;;;;;5075089;28;19924;-69
2023/05/02 06:13:06;;;;;;;;;;;7.50;99.90;;;;;;5075047;28;19931;-69
2023/05/02 06:15:34;;;;;;;;;;;7.40;99.90;;;;;;5055245;28;19929;-70
2023/05/02 06:18:00;;;;;;;;;;;7.50;99.90;;;;;;5075959;28;19936;-70
2023/05/02 06:20:25;;;;;;;;;;;7.60;99.90;;;;;;5075117;28;19924;-70
2023/05/02 06:22:51;;;;;;;;;;;7.40;99.90;;;;;;5074510;28;19947;-70
2023/05/02 06:25:16;;;;;;;;;;;7.40;99.90;;;;;;5074578;28;19963;-69
2023/05/02 06:27:42;;;;;;;;;;;7.40;99.90;;;;;;5072813;28;19932;-69
2023/05/02 06:30:08;;;;;;;;;;;7.50;99.90;;;;;;5073657;28;20314;-69
2023/05/02 06:32:33;;;;;;;;;;;7.50;99.90;;;;;;5067612;28;19943;-69
2023/05/02 06:34:59;;;;;;;;;;;7.50;99.90;;;;;;5073053;28;19929;-69
2023/05/02 06:37:25;;;;;;;;;;;7.60;99.90;;;;;;5074429;28;19932;-68
2023/05/02 06:39:50;;;;;;;;;;;7.60;99.90;;;;;;5063299;28;19928;-69
2023/05/02 06:42:16;;;;;;;;;;;7.60;99.90;;;;;;5054367;28;19941;-69
2023/05/02 06:44:41;;;;;;;;;;;7.60;99.90;;;;;;5054469;28;19925;-69
2023/05/02 06:47:07;;;;;;;;;;;7.70;99.90;;;;;;5071114;28;19924;-69
2023/05/02 06:49:33;;;;;;;;;;;7.70;99.90;;;;;;5071781;28;19925;-70
2023/05/02 06:51:58;;;;;;;;;;;7.70;99.90;;;;;;5074277;28;20422;-70
2023/05/02 06:54:24;;;;;;;;;;;7.70;99.90;;;;;;5068093;28;19933;-70
2023/05/02 06:56:50;;;;;;;;;;;7.80;99.90;;;;;;5054259;28;19931;-71
2023/05/02 06:59:15;;;;;;;;;;;7.90;99.90;;;;;;5053677;28;19924;-70
2023/05/02 07:01:42;;;;;;;;;;;7.90;99.90;;;;;;5073572;28;19924;-70
2023/05/02 07:04:08;;;;;;;;;;;8.00;99.90;;;;;;5072940;28;20057;-70
2023/05/02 07:06:34;;;;;;;;;;;7.90;99.90;;;;;;5064705;28;20403;-71
2023/05/02 07:08:59;;;;;;;;;;;8.10;99.90;;;;;;5057493;28;19924;-70
2023/05/02 07:11:26;;;;;;;;;;;8.20;99.90;;;;;;5073551;28;19925;-69
2023/05/02 07:13:52;;;;;;;;;;;8.20;99.90;;;;;;5039619;28;19932;-70
2023/05/02 07:16:18;;;;;;;;;;;8.20;99.90;;;;;;5060147;28;19924;-71
2023/05/02 07:18:46;;;;;;;;;;;8.10;99.90;;;;;;5072650;28;19935;-71
2023/05/02 07:21:12;;;;;;;;;;;8.20;99.90;;;;;;5054071;28;19927;-70
2023/05/02 07:23:37;;;;;;;;;;;8.20;99.90;;;;;;5053497;28;19925;-71
2023/05/02 07:26:04;;;;;;;;;;;8.20;99.90;;;;;;5056216;28;20302;-70
2023/05/02 07:28:29;;;;;;;;;;;8.30;99.90;;;;;;5064826;28;19928;-70
2023/05/02 07:30:55;;;;;;;;;;;8.30;99.90;;;;;;5073332;28;19925;-69
2023/05/02 07:33:21;;;;;;;;;;;8.30;99.90;;;;;;5073105;28;19928;-70
2023/05/02 07:35:46;;;;;;;;;;;8.40;99.90;;;;;;5058335;28;19983;-69
2023/05/02 07:38:12;;;;;;;;;;;8.50;99.90;;;;;;5055690;28;19990;-70
2023/05/02 07:40:37;;;;;;;;;;;8.60;99.90;;;;;;5054341;28;20370;-70
2023/05/02 07:43:03;;;;;;;;;;;8.60;99.90;;;;;;5057884;28;19925;-69
2023/05/02 07:45:28;;;;;;;;;;;8.70;99.90;;;;;;5052568;28;20189;-70
2023/05/02 07:47:54;;;;;;;;;;;8.80;99.90;;;;;;5067883;28;19943;-71
2023/05/02 07:50:19;;;;;;;;;;;8.90;99.90;;;;;;5073276;28;19924;-70
2023/05/02 07:52:45;;;;;;;;;;;9.00;99.90;;;;;;5073246;28;19925;-69
2023/05/02 07:55:11;;;;;;;;;;;9.10;99.90;;;;;;5059780;28;20386;-70
2023/05/02 07:57:37;;;;;;;;;;;9.20;99.90;;;;;;5052826;28;20513;-70
2023/05/02 08:00:03;;;;;;;;;;;9.20;99.90;;;;;;5062240;28;20004;-71
2023/05/02 08:02:29;;;;;;;;;;;9.20;99.90;;;;;;5052951;28;20031;-70
2023/05/02 08:04:54;;;;;;;;;;;9.30;99.90;;;;;;5063418;28;20011;-67
2023/05/02 08:07:20;;;;;;;;;;;9.50;99.90;;;;;;5072848;28;20007;-69
2023/05/02 08:09:46;;;;;;;;;;;9.60;99.90;;;;;;5066523;28;19931;-70
2023/05/02 08:12:11;;;;;;;;;;;9.60;99.90;;;;;;5072889;28;20066;-70
2023/05/02 08:14:37;;;;;;;;;;;9.60;99.90;;;;;;5072932;28;19925;-70
2023/05/02 08:17:02;;;;;;;;;;;9.60;99.90;;;;;;5069776;28;20294;-67
2023/05/02 08:19:28;;;;;;;;;;;9.70;99.10;;;;;;5071453;28;20239;-70
2023/05/02 08:21:53;;;;;;;;;;;9.70;99.40;;;;;;5047908;28;20412;-70
2023/05/02 08:24:19;;;;;;;;;;;9.80;98.90;;;;;;5059584;28;20294;-71
2023/05/02 08:26:44;;;;;;;;;;;9.80;99.00;;;;;;5054821;28;19925;-70
2023/05/02 08:29:10;;;;;;;;;;;9.80;98.20;;;;;;5043203;28;19929;-70
2023/05/02 08:31:36;;;;;;;;;;;9.80;98.40;;;;;;5071121;28;19932;-69
2023/05/02 08:34:02;;;;;;;;;;;9.80;98.50;;;;;;5071230;28;19924;-70
2023/05/02 08:36:27;;;;;;;;;;;9.80;98.30;;;;;;5058378;28;19925;-69
2023/05/02 08:38:53;;;;;;;;;;;9.90;97.80;;;;;;5052760;28;19924;-70
2023/05/02 08:41:19;;;;;;;;;;;10.00;97.90;;;;;;5037088;28;19925;-69
2023/05/02 08:43:45;;;;;;;;;;;10.00;97.00;;;;;;5054737;28;19947;-70
2023/05/02 08:46:11;;;;;;;;;;;9.90;97.60;;;;;;5062010;28;19935;-70
2023/05/02 08:48:38;;;;;;;;;;;9.90;98.60;;;;;;5072437;28;20294;-70
2023/05/02 08:51:06;;;;;;;;;;;10.00;97.90;;;;;;5075002;28;20014;-70
2023/05/02 08:53:36;;;;;;;;;;;10.20;97.60;;;;;;5041300;28;20279;-72
2023/05/02 08:56:02;;;;;;;;;;;10.50;97.90;;;;;;5075413;28;19925;-70
2023/05/02 08:58:29;;;;;;;;;;;10.80;96.50;;;;;;5073649;28;19936;-69
2023/05/02 09:00:55;;;;;;;;;;;10.90;96.20;;;;;;5074835;28;19924;-70
2023/05/02 09:03:29;;;;;;;;;;;10.80;96.00;;;;;;5075008;28;19924;-69
2023/05/02 09:06:02;;;;;;;;;;;10.60;96.10;;;;;;5075992;28;20511;-70
2023/05/02 09:08:27;;;;;;;;;;;10.50;96.70;;;;;;5067224;28;19925;-68
2023/05/02 09:10:53;;;;;;;;;;;10.50;97.10;;;;;;5056289;28;19931;-68
2023/05/02 09:13:31;;;;;;;;;;;10.50;97.00;;;;;;5058017;28;20022;-68
2023/05/02 09:16:01;;;;;;;;;;;10.50;97.40;;;;;;5076107;28;20022;-68
2023/05/02 09:18:27;;;;;;;;;;;10.50;97.70;;;;;;5062269;28;19924;-69
2023/05/02 09:20:53;;;;;;;;;;;10.60;97.90;;;;;;5056538;28;19925;-68
2023/05/02 09:23:19;;;;;;;;;;;10.40;99.00;;;;;;5048743;28;19932;-68
2023/05/02 09:25:45;;;;;;;;;;;10.40;99.70;;;;;;5066641;28;19928;-69
2023/05/02 09:28:10;;;;;;;;;;;10.20;99.90;;;;;;5075670;28;20297;-69
2023/05/02 09:30:36;;;;;;;;;;;10.30;99.90;;;;;;5075583;28;19924;-69
2023/05/02 09:33:02;;;;;;;;;;;10.10;99.90;;;;;;5069409;28;19932;-70
2023/05/02 09:35:27;;;;;;;;;;;10.00;99.90;;;;;;5075596;28;19978;-69
2023/05/02 09:37:56;;;;;;;;;;;10.10;99.90;;;;;;5071621;28;20294;-69
2023/05/02 09:40:23;;;;;;;;;;;10.30;99.40;;;;;;5059251;28;19924;-69
2023/05/02 09:42:48;;;;;;;;;;;10.40;99.90;;;;;;5075621;28;19925;-68
2023/05/02 09:45:24;;;;;;;;;;;10.50;99.60;;;;;;5056139;28;19931;-69
2023/05/02 09:47:50;;;;;;;;;;;10.50;99.10;;;;;;5056620;28;20405;-69
2023/05/02 09:50:32;;;;;;;;;;;10.70;99.70;;;;;;5057504;28;19924;-69
2023/05/02 09:53:01;;;;;;;;;;;11.00;99.50;;;;;;5075121;28;19925;-69
2023/05/02 09:55:27;;;;;;;;;;;11.10;99.20;;;;;;5074474;28;20472;-69
2023/05/02 09:57:52;;;;;;;;;;;11.10;98.80;;;;;;5075235;28;19925;-69
2023/05/02 10:00:19;;;;;;;;;;;11.00;98.60;;;;;;5075315;28;19932;-69
2023/05/02 10:02:46;;;;;;;;;;;10.70;99.00;;;;;;5073321;28;20343;-70
2023/05/02 10:05:12;;;;;;;;;;;10.50;98.80;;;;;;5074839;28;19925;-69
2023/05/02 10:07:38;;;;;;;;;;;10.50;98.80;;;;;;5072598;28;20053;-70
2023/05/02 10:10:05;;;;;;;;;;;10.60;98.90;;;;;;5073712;28;20294;-70
2023/05/02 10:12:31;;;;;;;;;;;10.30;99.20;;;;;;5049669;28;19939;-69
2023/05/02 10:15:02;;;;;;;;;;;10.50;99.40;;;;;;5069562;28;19999;-69
2023/05/02 10:17:30;;;;;;;;;;;10.70;98.60;;;;;;5055815;28;19924;-69
2023/05/02 10:19:59;;;;;;;;;;;10.90;99.00;;;;;;5069681;28;20293;-70
2023/05/02 10:22:25;;;;;;;;;;;11.00;97.50;;;;;;5067517;28;20231;-69
2023/05/02 10:24:51;;;;;;;;;;;11.10;97.00;;;;;;5074268;28;19935;-69
2023/05/02 10:27:17;;;;;;;;;;;11.20;97.70;;;;;;5038044;28;20023;-70
2023/05/02 10:29:42;;;;;;;;;;;11.00;97.90;;;;;;5074930;28;20442;-72
2023/05/02 10:32:09;;;;;;;;;;;10.90;98.10;;;;;;5074819;28;19924;-69
2023/05/02 10:34:35;;;;;;;;;;;10.90;98.30;;;;;;5075225;28;20015;-69
2023/05/02 10:37:01;;;;;;;;;;;11.10;98.70;;;;;;5064414;28;20002;-70
2023/05/02 10:39:26;;;;;;;;;;;11.20;98.60;;;;;;5054980;28;20374;-70
2023/05/02 10:41:54;;;;;;;;;;;11.30;97.70;;;;;;5071051;28;20019;-69
2023/05/02 10:44:39;;;;;;;;;;;11.40;97.40;;;;;;5046762;28;19979;-69
2023/05/02 10:47:37;;;;;;;;;;;11.30;98.60;;;;;;5036722;28;19925;-69
2023/05/02 10:50:03;;;;;;;;;;;11.20;99.80;;;;;;5031531;28;19932;-69
2023/05/02 10:52:29;;;;;;;;;;;11.00;99.90;;;;;;5059941;28;19947;-69
2023/05/02 10:55:16;;;;;;;;;;;10.90;99.90;;;;;;5073188;28;20378;-69
2023/05/02 10:58:00;;;;;;;;;;;10.70;99.90;;;;;;5054714;28;20371;-70
2023/05/02 11:00:28;;;;;;;;;;;10.60;99.90;;;;;;5058743;28;19932;-70
2023/05/02 11:02:53;;;;;;;;;;;10.50;99.90;;;;;;5065770;28;20082;-69
2023/05/02 11:05:20;;;;;;;;;;;10.80;99.90;;;;;;5054235;28;19982;-69
2023/05/02 11:07:46;;;;;;;;;;;11.50;99.90;;;;;;5053715;28;19932;-71
2023/05/02 11:10:19;;;;;;;;;;;12.20;99.90;;;;;;5064015;28;19924;-73
2023/05/02 11:12:59;;;;;;;;;;;12.70;99.90;;;;;;5072931;28;19999;-70
2023/05/02 11:15:28;;;;;;;;;;;12.60;98.50;;;;;;5054150;28;19932;-70
2023/05/02 11:17:57;;;;;;;;;;;13.30;98.60;;;;;;5035521;28;20007;-69
2023/05/02 11:20:22;;;;;;;;;;;13.70;96.70;;;;;;5053944;28;19925;-70
2023/05/02 11:22:48;;;;;;;;;;;13.70;95.70;;;;;;5070372;28;19932;-69
2023/05/02 11:25:30;;;;;;;;;;;13.60;96.40;;;;;;5072490;28;19925;-70
2023/05/02 11:27:56;;;;;;;;;;;13.50;96.20;;;;;;5069267;28;20301;-70
2023/05/02 11:30:35;;;;;;;;;;;13.30;96.00;;;;;;5072206;28;19924;-70
2023/05/02 11:33:07;;;;;;;;;;;12.90;95.00;;;;;;5072818;28;19936;-69
2023/05/02 11:35:34;;;;;;;;;;;12.60;95.90;;;;;;5069360;28;19925;-70
2023/05/02 11:38:03;;;;;;;;;;;12.30;96.80;;;;;;5069723;28;19966;-70
2023/05/02 11:40:29;;;;;;;;;;;12.10;97.50;;;;;;5055606;28;19964;-70
2023/05/02 11:42:56;;;;;;;;;;;12.20;97.00;;;;;;5072527;28;19924;-70
2023/05/02 11:45:22;;;;;;;;;;;12.50;97.90;;;;;;5067849;28;19924;-69
2023/05/02 11:47:49;;;;;;;;;;;12.70;96.40;;;;;;5053447;28;19948;-69
2023/05/02 11:50:15;;;;;;;;;;;12.60;96.20;;;;;;5035242;28;19924;-70
2023/05/02 11:52:42;;;;;;;;;;;12.40;95.20;;;;;;5053487;28;19932;-69
2023/05/02 11:55:10;;;;;;;;;;;12.30;95.20;;;;;;5069540;28;19925;-69
2023/05/02 11:57:36;;;;;;;;;;;12.40;95.10;;;;;;5066251;28;19924;-70
2023/05/02 12:00:02;;;;;;;;;;;12.70;94.90;;;;;;5073234;28;19946;-70
2023/05/02 12:02:38;;;;;;;;;;;12.90;93.50;;;;;;5072840;28;19924;-70
2023/05/02 12:05:05;;;;;;;;;;;12.90;93.20;;;;;;5042403;28;20275;-70
2023/05/02 12:07:35;;;;;;;;;;;13.40;94.70;;;;;;5052700;28;19925;-69
2023/05/02 12:10:00;;;;;;;;;;;13.60;90.20;;;;;;5048563;28;19974;-69
2023/05/02 12:12:26;;;;;;;;;;;13.20;90.40;;;;;;5071890;28;19967;-70
2023/05/02 12:14:51;;;;;;;;;;;13.00;91.70;;;;;;5073183;28;19932;-69
2023/05/02 12:17:17;;;;;;;;;;;13.10;91.60;;;;;;5072798;28;19925;-69
2023/05/02 12:19:43;;;;;;;;;;;13.40;91.10;;;;;;5057182;28;20046;-69
2023/05/02 12:22:09;;;;;;;;;;;13.80;90.20;;;;;;5052880;28;20398;-69
2023/05/02 12:24:35;;;;;;;;;;;14.10;90.30;;;;;;5060058;28;19931;-70
2023/05/02 12:27:10;;;;;;;;;;;14.20;89.00;;;;;;5072049;28;20286;-69
2023/05/02 12:29:42;;;;;;;;;;;14.40;88.20;;;;;;5052469;28;19925;-70
2023/05/02 12:32:08;;;;;;;;;;;14.70;88.40;;;;;;5057279;28;19928;-69
2023/05/02 12:34:35;;;;;;;;;;;14.80;88.60;;;;;;5070390;28;20048;-70
2023/05/02 12:37:01;;;;;;;;;;;14.70;88.80;;;;;;5061284;28;19925;-69
2023/05/02 12:39:41;;;;;;;;;;;14.60;89.50;;;;;;5050459;28;19928;-69
2023/05/02 12:42:10;;;;;;;;;;;14.70;86.80;;;;;;5055951;28;19977;-69
2023/05/02 12:44:40;;;;;;;;;;;14.60;85.60;;;;;;5041032;28;19925;-71
2023/05/02 12:47:06;;;;;;;;;;;14.20;86.90;;;;;;5061411;28;20017;-69
2023/05/02 12:49:32;;;;;;;;;;;13.80;87.80;;;;;;5043800;28;20390;-70
2023/05/02 12:51:58;;;;;;;;;;;13.50;90.30;;;;;;5053059;28;19924;-69
2023/05/02 12:54:25;;;;;;;;;;;13.70;91.70;;;;;;5053595;28;20028;-69
2023/05/02 12:56:51;;;;;;;;;;;13.70;92.40;;;;;;5052660;28;19958;-70
2023/05/02 12:59:29;;;;;;;;;;;13.40;93.30;;;;;;5072991;28;19986;-69
2023/05/02 13:01:55;;;;;;;;;;;13.10;93.70;;;;;;5072320;28;19924;-69
2023/05/02 13:04:20;;;;;;;;;;;12.60;95.30;;;;;;5072769;28;20023;-70
2023/05/02 13:06:46;;;;;;;;;;;13.10;96.60;;;;;;5073847;28;19970;-69
2023/05/02 13:09:11;;;;;;;;;;;13.10;95.10;;;;;;5051468;28;19971;-69
2023/05/02 13:11:38;;;;;;;;;;;12.90;94.20;;;;;;5072473;28;19924;-69
2023/05/02 13:14:04;;;;;;;;;;;12.50;95.10;;;;;;5054993;28;20286;-69
2023/05/02 13:16:32;;;;;;;;;;;12.40;95.20;;;;;;5068445;28;19924;-69
2023/05/02 13:18:57;;;;;;;;;;;12.20;96.00;;;;;;5057124;28;19928;-69
2023/05/02 13:21:23;;;;;;;;;;;12.10;95.10;;;;;;5072584;28;19950;-69
2023/05/02 13:23:49;;;;;;;;;;;12.00;95.30;;;;;;5043316;28;19932;-69
2023/05/02 13:26:15;;;;;;;;;;;11.80;95.70;;;;;;5036541;28;19925;-69
2023/05/02 13:28:41;;;;;;;;;;;12.00;95.40;;;;;;5065717;28;20441;-69
2023/05/02 13:31:06;;;;;;;;;;;11.90;94.40;;;;;;5071856;28;19986;-69
2023/05/02 13:33:32;;;;;;;;;;;11.80;95.30;;;;;;5054933;28;20366;-69
2023/05/02 13:35:57;;;;;;;;;;;11.60;94.80;;;;;;5058423;28;19931;-69
2023/05/02 13:38:23;;;;;;;;;;;11.60;94.70;;;;;;5077358;28;19925;-69
2023/05/02 13:40:49;;;;;;;;;;;11.50;95.30;;;;;;5053408;28;19924;-69
2023/05/02 13:43:14;;;;;;;;;;;11.50;95.30;;;;;;5060988;28;19924;-69
2023/05/02 13:45:40;;;;;;;;;;;11.40;95.60;;;;;;5073066;28;19960;-69
2023/05/02 13:48:05;;;;;;;;;;;11.40;95.70;;;;;;5077605;28;19990;-69
2023/05/02 13:50:36;;;;;;;;;;;11.50;96.10;;;;;;5076629;28;19928;-68
2023/05/02 13:53:02;;;;;;;;;;;11.70;95.20;;;;;;5072034;28;20426;-69
2023/05/02 13:55:27;;;;;;;;;;;11.70;95.40;;;;;;5075049;28;20069;-69
2023/05/02 13:57:53;;;;;;;;;;;11.80;95.60;;;;;;5061497;28;19968;-69
2023/05/02 14:00:19;;;;;;;;;;;12.30;94.80;;;;;;5076987;28;19968;-70
2023/05/02 14:02:47;;;;;;;;;;;12.70;93.90;;;;;;5041292;28;20341;-70
2023/05/02 14:05:12;;;;;;;;;;;13.00;92.30;;;;;;5059034;28;19925;-71
2023/05/02 14:07:38;;;;;;;;;;;13.10;92.90;;;;;;5058314;28;19979;-69
2023/05/02 14:10:04;;;;;;;;;;;12.90;92.50;;;;;;5061531;28;19967;-69
2023/05/02 14:12:30;;;;;;;;;;;12.60;92.90;;;;;;5072479;28;19964;-69
2023/05/02 14:14:56;;;;;;;;;;;12.50;93.70;;;;;;5060292;28;19964;-69
2023/05/02 14:17:23;;;;;;;;;;;12.30;94.30;;;;;;5059108;28;20421;-69
2023/05/02 14:19:50;;;;;;;;;;;12.50;95.00;;;;;;5059353;28;19925;-69
2023/05/02 14:22:16;;;;;;;;;;;12.50;94.10;;;;;;5059190;28;19932;-69
2023/05/02 14:24:41;;;;;;;;;;;12.40;94.10;;;;;;5066793;28;19924;-70